sensor_id;sensor_type;location;lat;lon;timestamp;temperature;humidity
19552;DHT22;9921;47.186;9.778;2023-02-28T00:01:11;1.10;99.90
19552;DHT22;9921;47.186;9.778;2023-02-28T00:03:38;1.10;99.90
19552;DHT22;9921;47.186;9.778;2023-02-28T00:06:07;1.20;99.90
19552;DHT22;9921;47.186;9.778;2023-02-28T00:08:35;1.20;99.90
19552;DHT22;9921;47.186;9.778;2023-02-28T00:11:04;1.20;99.90
19552;DHT22;9921;47.186;9.778;2023-02-28T00:13:33;1.20;99.90
19552;DHT22;9921;47.186;9.778;2023-02-28T00:16:01;1.30;99.90
19552;DHT22;9921;47.186;9.778;2023-02-28T00:18:28;1.30;99.90
19552;DHT22;9921;47.186;9.778;2023-02-28T00:20:55;1.40;99.90
19552;DHT22;9921;47.186;9.778;2023-02-28T00:23:21;1.40;99.90
19552;DHT22;9921;47.186;9.778;2023-02-28T00:25:49;1.40;99.90
19552;DHT22;9921;47.186;9.778;2023-02-28T00:28:18;1.40;99.90
19552;DHT22;9921;47.186;9.778;2023-02-28T00:30:45;1.40;99.90
19552;DHT22;9921;47.186;9.778;2023-02-28T00:33:12;1.40;99.90
19552;DHT22;9921;47.186;9.778;2023-02-28T00:35:39;1.40;99.90
19552;DHT22;9921;47.186;9.778;2023-02-28T00:38:06;1.40;99.90
19552;DHT22;9921;47.186;9.778;2023-02-28T00:40:33;1.40;99.90
19552;DHT22;9921;47.186;9.778;2023-02-28T00:43:00;1.40;99.90
19552;DHT22;9921;47.186;9.778;2023-02-28T00:45:28;1.30;99.90
19552;DHT22;9921;47.186;9.778;2023-02-28T00:47:55;1.30;99.90
19552;DHT22;9921;47.186;9.778;2023-02-28T00:50:22;1.30;99.90
19552;DHT22;9921;47.186;9.778;2023-02-28T00:52:48;1.30;99.90
19552;DHT22;9921;47.186;9.778;2023-02-28T00:55:15;1.30;99.90
19552;DHT22;9921;47.186;9.778;2023-02-28T00:57:43;1.30;99.90
19552;DHT22;9921;47.186;9.778;2023-02-28T01:00:11;1.30;99.90
19552;DHT22;9921;47.186;9.778;2023-02-28T01:02:40;1.30;99.90
19552;DHT22;9921;47.186;9.778;2023-02-28T01:05:07;1.40;99.90
19552;DHT22;9921;47.186;9.778;2023-02-28T01:07:34;1.20;99.90
19552;DHT22;9921;47.186;9.778;2023-02-28T01:10:01;1.20;99.90
19552;DHT22;9921;47.186;9.778;2023-02-28T01:12:28;1.30;99.90
19552;DHT22;9921;47.186;9.778;2023-02-28T01:14:55;1.30;99.90
19552;DHT22;9921;47.186;9.778;2023-02-28T01:17:22;1.30;99.90
19552;DHT22;9921;47.186;9.778;2023-02-28T01:19:53;1.30;99.90
19552;DHT22;9921;47.186;9.778;2023-02-28T01:22:20;1.30;99.90
19552;DHT22;9921;47.186;9.778;2023-02-28T01:24:46;1.20;99.90
19552;DHT22;9921;47.186;9.778;2023-02-28T01:27:13;1.20;99.90
19552;DHT22;9921;47.186;9.778;2023-02-28T01:29:40;1.20;99.90
19552;DHT22;9921;47.186;9.778;2023-02-28T01:32:07;1.20;99.90
19552;DHT22;9921;47.186;9.778;2023-02-28T01:34:34;1.20;99.90
19552;DHT22;9921;47.186;9.778;2023-02-28T01:37:02;1.20;99.90
19552;DHT22;9921;47.186;9.778;2023-02-28T01:39:29;1.20;99.90
19552;DHT22;9921;47.186;9.778;2023-02-28T01:41:56;1.20;99.90
19552;DHT22;9921;47.186;9.778;2023-02-28T01:44:59;1.20;99.90
19552;DHT22;9921;47.186;9.778;2023-02-28T01:47:28;1.20;99.90
19552;DHT22;9921;47.186;9.778;2023-02-28T01:49:56;1.20;99.90
19552;DHT22;9921;47.186;9.778;2023-02-28T01:52:26;1.20;99.90
19552;DHT22;9921;47.186;9.778;2023-02-28T01:54:55;1.20;99.90
19552;DHT22;9921;47.186;9.778;2023-02-28T01:57:25;1.20;99.90
19552;DHT22;9921;47.186;9.778;2023-02-28T01:59:58;1.20;99.90
19552;DHT22;9921;47.186;9.778;2023-02-28T02:02:27;1.20;99.90
19552;DHT22;9921;47.186;9.778;2023-02-28T02:04:57;1.10;99.90
19552;DHT22;9921;47.186;9.778;2023-02-28T02:07:29;1.10;99.90
19552;DHT22;9921;47.186;9.778;2023-02-28T02:10:01;1.20;99.90
19552;DHT22;9921;47.186;9.778;2023-02-28T02:12:36;1.20;99.90
19552;DHT22;9921;47.186;9.778;2023-02-28T02:15:12;1.20;99.90
19552;DHT22;9921;47.186;9.778;2023-02-28T02:17:45;1.20;99.90
19552;DHT22;9921;47.186;9.778;2023-02-28T02:26:40;1.20;99.90
19552;DHT22;9921;47.186;9.778;2023-02-28T02:32:45;1.20;99.90
19552;DHT22;9921;47.186;9.778;2023-02-28T02:35:20;1.20;99.90
19552;DHT22;9921;47.186;9.778;2023-02-28T02:37:54;1.30;99.90
19552;DHT22;9921;47.186;9.778;2023-02-28T02:40:27;1.30;99.90
19552;DHT22;9921;47.186;9.778;2023-02-28T02:43:02;1.30;99.90
19552;DHT22;9921;47.186;9.778;2023-02-28T02:45:33;1.20;99.90
19552;DHT22;9921;47.186;9.778;2023-02-28T02:48:02;1.20;99.90
19552;DHT22;9921;47.186;9.778;2023-02-28T02:50:36;1.20;99.90
19552;DHT22;9921;47.186;9.778;2023-02-28T02:53:04;1.20;99.90
19552;DHT22;9921;47.186;9.778;2023-02-28T02:55:34;1.20;99.90
19552;DHT22;9921;47.186;9.778;2023-02-28T02:58:07;1.20;99.90
19552;DHT22;9921;47.186;9.778;2023-02-28T03:00:37;1.20;99.90
19552;DHT22;9921;47.186;9.778;2023-02-28T03:03:07;1.10;99.90
19552;DHT22;9921;47.186;9.778;2023-02-28T03:05:44;1.10;99.90
19552;DHT22;9921;47.186;9.778;2023-02-28T03:08:12;1.10;99.90
19552;DHT22;9921;47.186;9.778;2023-02-28T03:10:41;1.10;99.90
19552;DHT22;9921;47.186;9.778;2023-02-28T03:13:31;1.00;99.90
19552;DHT22;9921;47.186;9.778;2023-02-28T03:16:27;1.00;99.90
19552;DHT22;9921;47.186;9.778;2023-02-28T03:19:02;1.00;99.90
19552;DHT22;9921;47.186;9.778;2023-02-28T03:21:36;1.00;99.90
19552;DHT22;9921;47.186;9.778;2023-02-28T03:24:06;1.00;99.90
19552;DHT22;9921;47.186;9.778;2023-02-28T03:26:39;1.10;99.90
19552;DHT22;9921;47.186;9.778;2023-02-28T03:29:10;1.10;99.90
19552;DHT22;9921;47.186;9.778;2023-02-28T03:31:47;1.10;99.90
19552;DHT22;9921;47.186;9.778;2023-02-28T03:34:19;1.10;99.90
19552;DHT22;9921;47.186;9.778;2023-02-28T03:36:52;1.10;99.90
19552;DHT22;9921;47.186;9.778;2023-02-28T03:39:22;1.10;99.90
19552;DHT22;9921;47.186;9.778;2023-02-28T03:41:54;1.10;99.90
19552;DHT22;9921;47.186;9.778;2023-02-28T03:44:25;1.10;99.90
19552;DHT22;9921;47.186;9.778;2023-02-28T03:46:56;1.10;99.90
19552;DHT22;9921;47.186;9.778;2023-02-28T03:49:27;1.10;99.90
19552;DHT22;9921;47.186;9.778;2023-02-28T03:52:00;1.00;99.90
19552;DHT22;9921;47.186;9.778;2023-02-28T03:54:32;1.00;99.90
19552;DHT22;9921;47.186;9.778;2023-02-28T03:57:03;1.00;99.90
19552;DHT22;9921;47.186;9.778;2023-02-28T03:59:34;1.00;99.90
19552;DHT22;9921;47.186;9.778;2023-02-28T04:02:04;1.00;99.90
19552;DHT22;9921;47.186;9.778;2023-02-28T04:04:31;1.00;99.90
19552;DHT22;9921;47.186;9.778;2023-02-28T04:07:05;1.00;99.90
19552;DHT22;9921;47.186;9.778;2023-02-28T04:09:32;0.90;99.90
19552;DHT22;9921;47.186;9.778;2023-02-28T04:11:59;1.00;99.90
19552;DHT22;9921;47.186;9.778;2023-02-28T04:14:26;0.90;99.90
19552;DHT22;9921;47.186;9.778;2023-02-28T04:16:53;1.00;99.90
19552;DHT22;9921;47.186;9.778;2023-02-28T04:19:20;1.00;99.90
19552;DHT22;9921;47.186;9.778;2023-02-28T04:21:49;0.90;99.90
19552;DHT22;9921;47.186;9.778;2023-02-28T04:24:18;0.90;99.90
19552;DHT22;9921;47.186;9.778;2023-02-28T04:26:47;0.90;99.90
19552;DHT22;9921;47.186;9.778;2023-02-28T04:29:22;0.80;99.90
19552;DHT22;9921;47.186;9.778;2023-02-28T04:31:50;0.80;99.90
19552;DHT22;9921;47.186;9.778;2023-02-28T04:34:18;0.70;99.90
19552;DHT22;9921;47.186;9.778;2023-02-28T04:36:46;0.70;99.90
19552;DHT22;9921;47.186;9.778;2023-02-28T04:39:14;0.70;99.90
19552;DHT22;9921;47.186;9.778;2023-02-28T04:41:44;0.70;99.90
19552;DHT22;9921;47.186;9.778;2023-02-28T04:44:11;0.60;99.90
19552;DHT22;9921;47.186;9.778;2023-02-28T04:46:37;0.60;99.90
19552;DHT22;9921;47.186;9.778;2023-02-28T04:49:04;0.60;99.90
19552;DHT22;9921;47.186;9.778;2023-02-28T04:51:31;0.60;99.90
19552;DHT22;9921;47.186;9.778;2023-02-28T04:53:58;0.70;99.90
19552;DHT22;9921;47.186;9.778;2023-02-28T04:56:25;0.70;99.90
19552;DHT22;9921;47.186;9.778;2023-02-28T04:58:53;0.70;99.90
19552;DHT22;9921;47.186;9.778;2023-02-28T05:01:22;0.70;99.90
19552;DHT22;9921;47.186;9.778;2023-02-28T05:03:50;0.70;99.90
19552;DHT22;9921;47.186;9.778;2023-02-28T05:06:18;0.70;99.90
19552;DHT22;9921;47.186;9.778;2023-02-28T05:08:45;0.60;99.90
19552;DHT22;9921;47.186;9.778;2023-02-28T05:11:16;0.60;99.90
19552;DHT22;9921;47.186;9.778;2023-02-28T05:13:43;0.60;99.90
19552;DHT22;9921;47.186;9.778;2023-02-28T05:16:11;0.60;99.90
19552;DHT22;9921;47.186;9.778;2023-02-28T05:18:38;0.50;99.90
19552;DHT22;9921;47.186;9.778;2023-02-28T05:21:05;0.50;99.90
19552;DHT22;9921;47.186;9.778;2023-02-28T05:23:32;0.50;99.90
19552;DHT22;9921;47.186;9.778;2023-02-28T05:25:59;0.40;99.90
19552;DHT22;9921;47.186;9.778;2023-02-28T05:28:26;0.40;99.90
19552;DHT22;9921;47.186;9.778;2023-02-28T05:30:53;0.40;99.90
19552;DHT22;9921;47.186;9.778;2023-02-28T05:33:21;0.50;99.90
19552;DHT22;9921;47.186;9.778;2023-02-28T05:35:48;0.40;99.90
19552;DHT22;9921;47.186;9.778;2023-02-28T05:38:15;0.40;99.90
19552;DHT22;9921;47.186;9.778;2023-02-28T05:40:42;0.40;99.90
19552;DHT22;9921;47.186;9.778;2023-02-28T05:43:10;0.40;99.90
19552;DHT22;9921;47.186;9.778;2023-02-28T05:45:37;0.40;99.90
19552;DHT22;9921;47.186;9.778;2023-02-28T05:48:04;0.40;99.90
19552;DHT22;9921;47.186;9.778;2023-02-28T05:50:33;0.40;99.90
19552;DHT22;9921;47.186;9.778;2023-02-28T05:52:59;0.30;99.90
19552;DHT22;9921;47.186;9.778;2023-02-28T05:55:26;0.40;99.90
19552;DHT22;9921;47.186;9.778;2023-02-28T05:57:53;0.30;99.90
19552;DHT22;9921;47.186;9.778;2023-02-28T06:00:21;0.30;99.90
19552;DHT22;9921;47.186;9.778;2023-02-28T06:02:48;0.40;99.90
19552;DHT22;9921;47.186;9.778;2023-02-28T06:05:17;0.40;99.90
19552;DHT22;9921;47.186;9.778;2023-02-28T06:07:46;0.50;99.90
19552;DHT22;9921;47.186;9.778;2023-02-28T06:10:13;0.30;99.90
19552;DHT22;9921;47.186;9.778;2023-02-28T06:12:40;0.20;99.90
19552;DHT22;9921;47.186;9.778;2023-02-28T06:15:11;0.20;99.90
19552;DHT22;9921;47.186;9.778;2023-02-28T06:17:38;0.30;99.90
19552;DHT22;9921;47.186;9.778;2023-02-28T06:20:07;0.40;99.90
19552;DHT22;9921;47.186;9.778;2023-02-28T06:22:35;0.50;99.90
19552;DHT22;9921;47.186;9.778;2023-02-28T06:25:04;0.60;99.90
19552;DHT22;9921;47.186;9.778;2023-02-28T06:27:34;0.60;99.90
19552;DHT22;9921;47.186;9.778;2023-02-28T06:30:02;0.60;99.90
19552;DHT22;9921;47.186;9.778;2023-02-28T06:32:29;0.60;99.90
19552;DHT22;9921;47.186;9.778;2023-02-28T06:34:56;0.70;99.90
19552;DHT22;9921;47.186;9.778;2023-02-28T06:37:23;0.60;99.90
19552;DHT22;9921;47.186;9.778;2023-02-28T06:39:51;0.70;99.90
19552;DHT22;9921;47.186;9.778;2023-02-28T06:42:20;0.70;99.90
19552;DHT22;9921;47.186;9.778;2023-02-28T06:44:47;0.80;99.90
19552;DHT22;9921;47.186;9.778;2023-02-28T06:47:14;0.80;99.90
19552;DHT22;9921;47.186;9.778;2023-02-28T06:49:41;0.80;99.90
19552;DHT22;9921;47.186;9.778;2023-02-28T06:52:08;0.80;99.90
19552;DHT22;9921;47.186;9.778;2023-02-28T06:54:36;0.90;99.90
19552;DHT22;9921;47.186;9.778;2023-02-28T06:57:03;0.90;99.90
19552;DHT22;9921;47.186;9.778;2023-02-28T06:59:31;1.10;99.90
19552;DHT22;9921;47.186;9.778;2023-02-28T07:01:58;1.10;99.90
19552;DHT22;9921;47.186;9.778;2023-02-28T07:04:25;1.10;99.90
19552;DHT22;9921;47.186;9.778;2023-02-28T07:06:53;1.20;99.90
19552;DHT22;9921;47.186;9.778;2023-02-28T07:09:21;1.30;99.90
19552;DHT22;9921;47.186;9.778;2023-02-28T07:11:48;1.30;99.90
19552;DHT22;9921;47.186;9.778;2023-02-28T07:14:15;1.40;99.90
19552;DHT22;9921;47.186;9.778;2023-02-28T07:16:43;1.40;99.90
19552;DHT22;9921;47.186;9.778;2023-02-28T07:19:11;1.40;99.90
19552;DHT22;9921;47.186;9.778;2023-02-28T07:21:38;1.50;99.90
19552;DHT22;9921;47.186;9.778;2023-02-28T07:24:05;1.50;99.90
19552;DHT22;9921;47.186;9.778;2023-02-28T07:26:33;1.50;99.90
19552;DHT22;9921;47.186;9.778;2023-02-28T07:29:00;1.60;99.90
19552;DHT22;9921;47.186;9.778;2023-02-28T07:31:27;1.50;99.90
19552;DHT22;9921;47.186;9.778;2023-02-28T07:33:55;1.60;99.90
19552;DHT22;9921;47.186;9.778;2023-02-28T07:36:22;1.50;99.90
19552;DHT22;9921;47.186;9.778;2023-02-28T07:38:49;1.60;99.90
19552;DHT22;9921;47.186;9.778;2023-02-28T07:41:17;1.60;99.90
19552;DHT22;9921;47.186;9.778;2023-02-28T07:43:44;1.60;99.90
19552;DHT22;9921;47.186;9.778;2023-02-28T07:46:13;1.60;99.90
19552;DHT22;9921;47.186;9.778;2023-02-28T07:48:41;1.70;99.90
19552;DHT22;9921;47.186;9.778;2023-02-28T07:51:10;1.70;99.90
19552;DHT22;9921;47.186;9.778;2023-02-28T07:53:37;1.70;99.90
19552;DHT22;9921;47.186;9.778;2023-02-28T07:56:05;1.60;99.90
19552;DHT22;9921;47.186;9.778;2023-02-28T07:58:32;1.70;99.90
19552;DHT22;9921;47.186;9.778;2023-02-28T08:01:05;1.70;99.90
19552;DHT22;9921;47.186;9.778;2023-02-28T08:03:32;1.60;99.90
19552;DHT22;9921;47.186;9.778;2023-02-28T08:05:58;1.70;99.90
19552;DHT22;9921;47.186;9.778;2023-02-28T08:08:27;1.80;99.90
19552;DHT22;9921;47.186;9.778;2023-02-28T08:10:54;1.80;99.90
19552;DHT22;9921;47.186;9.778;2023-02-28T08:13:21;1.80;99.90
19552;DHT22;9921;47.186;9.778;2023-02-28T08:15:48;1.90;99.90
19552;DHT22;9921;47.186;9.778;2023-02-28T08:18:15;1.90;99.90
19552;DHT22;9921;47.186;9.778;2023-02-28T08:20:42;1.90;99.90
19552;DHT22;9921;47.186;9.778;2023-02-28T08:23:09;2.00;99.90
19552;DHT22;9921;47.186;9.778;2023-02-28T08:25:37;2.20;99.90
19552;DHT22;9921;47.186;9.778;2023-02-28T08:28:04;2.40;99.90
19552;DHT22;9921;47.186;9.778;2023-02-28T08:30:31;2.50;99.90
19552;DHT22;9921;47.186;9.778;2023-02-28T08:32:58;2.70;99.90
19552;DHT22;9921;47.186;9.778;2023-02-28T08:35:25;2.70;99.90
19552;DHT22;9921;47.186;9.778;2023-02-28T08:37:51;2.50;99.90
19552;DHT22;9921;47.186;9.778;2023-02-28T08:40:18;2.40;99.90
19552;DHT22;9921;47.186;9.778;2023-02-28T08:42:47;2.80;99.90
19552;DHT22;9921;47.186;9.778;2023-02-28T08:45:14;3.00;99.90
19552;DHT22;9921;47.186;9.778;2023-02-28T08:47:41;3.40;99.90
19552;DHT22;9921;47.186;9.778;2023-02-28T08:50:09;3.60;99.90
19552;DHT22;9921;47.186;9.778;2023-02-28T08:52:36;3.60;99.90
19552;DHT22;9921;47.186;9.778;2023-02-28T08:55:04;3.40;99.90
19552;DHT22;9921;47.186;9.778;2023-02-28T08:57:31;3.00;99.90
19552;DHT22;9921;47.186;9.778;2023-02-28T09:00:00;2.80;99.90
19552;DHT22;9921;47.186;9.778;2023-02-28T09:02:30;2.70;99.90
19552;DHT22;9921;47.186;9.778;2023-02-28T09:04:57;2.80;99.90
19552;DHT22;9921;47.186;9.778;2023-02-28T09:07:24;2.70;99.90
19552;DHT22;9921;47.186;9.778;2023-02-28T09:09:51;2.70;99.90
19552;DHT22;9921;47.186;9.778;2023-02-28T09:12:21;2.70;99.90
19552;DHT22;9921;47.186;9.778;2023-02-28T09:14:48;2.90;99.90
19552;DHT22;9921;47.186;9.778;2023-02-28T09:17:16;3.00;99.90
19552;DHT22;9921;47.186;9.778;2023-02-28T09:19:43;3.20;99.90
19552;DHT22;9921;47.186;9.778;2023-02-28T09:22:10;3.40;99.90
19552;DHT22;9921;47.186;9.778;2023-02-28T09:24:38;3.60;99.90
19552;DHT22;9921;47.186;9.778;2023-02-28T09:27:05;3.70;99.90
19552;DHT22;9921;47.186;9.778;2023-02-28T09:29:33;3.70;99.90
19552;DHT22;9921;47.186;9.778;2023-02-28T09:32:00;3.80;99.90
19552;DHT22;9921;47.186;9.778;2023-02-28T09:34:29;3.90;99.90
19552;DHT22;9921;47.186;9.778;2023-02-28T09:36:56;3.90;99.90
19552;DHT22;9921;47.186;9.778;2023-02-28T09:39:23;4.00;99.90
19552;DHT22;9921;47.186;9.778;2023-02-28T09:41:52;4.10;99.90
19552;DHT22;9921;47.186;9.778;2023-02-28T09:44:26;4.20;99.90
19552;DHT22;9921;47.186;9.778;2023-02-28T09:46:57;4.40;99.90
19552;DHT22;9921;47.186;9.778;2023-02-28T09:49:33;5.10;99.90
19552;DHT22;9921;47.186;9.778;2023-02-28T09:52:03;6.20;99.90
19552;DHT22;9921;47.186;9.778;2023-02-28T09:54:32;6.80;99.90
19552;DHT22;9921;47.186;9.778;2023-02-28T09:57:01;6.80;99.90
19552;DHT22;9921;47.186;9.778;2023-02-28T09:59:48;7.10;99.90
19552;DHT22;9921;47.186;9.778;2023-02-28T10:02:28;6.70;99.90
19552;DHT22;9921;47.186;9.778;2023-02-28T10:04:59;6.50;99.90
19552;DHT22;9921;47.186;9.778;2023-02-28T10:07:40;8.30;99.90
19552;DHT22;9921;47.186;9.778;2023-02-28T10:10:19;8.60;99.90
19552;DHT22;9921;47.186;9.778;2023-02-28T10:12:48;8.30;99.90
19552;DHT22;9921;47.186;9.778;2023-02-28T10:15:19;7.60;99.90
19552;DHT22;9921;47.186;9.778;2023-02-28T10:17:51;7.40;99.90
19552;DHT22;9921;47.186;9.778;2023-02-28T10:20:23;7.60;99.90
19552;DHT22;9921;47.186;9.778;2023-02-28T10:22:58;8.20;99.90
19552;DHT22;9921;47.186;9.778;2023-02-28T10:25:27;9.60;99.90
19552;DHT22;9921;47.186;9.778;2023-02-28T10:28:01;11.30;99.90
19552;DHT22;9921;47.186;9.778;2023-02-28T10:30:31;12.90;99.90
19552;DHT22;9921;47.186;9.778;2023-02-28T10:32:58;13.70;99.90
19552;DHT22;9921;47.186;9.778;2023-02-28T10:35:27;14.00;99.90
19552;DHT22;9921;47.186;9.778;2023-02-28T10:37:56;14.50;99.50
19552;DHT22;9921;47.186;9.778;2023-02-28T10:40:31;15.80;98.10
19552;DHT22;9921;47.186;9.778;2023-02-28T10:43:00;17.30;94.40
19552;DHT22;9921;47.186;9.778;2023-02-28T10:45:28;18.40;90.40
19552;DHT22;9921;47.186;9.778;2023-02-28T10:48:00;19.10;85.10
19552;DHT22;9921;47.186;9.778;2023-02-28T10:50:34;19.90;79.30
19552;DHT22;9921;47.186;9.778;2023-02-28T10:53:14;20.50;72.90
19552;DHT22;9921;47.186;9.778;2023-02-28T10:55:42;19.40;72.50
19552;DHT22;9921;47.186;9.778;2023-02-28T10:58:21;17.50;72.00
19552;DHT22;9921;47.186;9.778;2023-02-28T11:00:49;17.00;73.50
19552;DHT22;9921;47.186;9.778;2023-02-28T11:03:30;16.10;75.00
19552;DHT22;9921;47.186;9.778;2023-02-28T11:06:03;18.00;74.90
19552;DHT22;9921;47.186;9.778;2023-02-28T11:08:30;18.90;68.30
19552;DHT22;9921;47.186;9.778;2023-02-28T11:11:01;19.00;67.80
19552;DHT22;9921;47.186;9.778;2023-02-28T11:13:32;19.30;68.70
19552;DHT22;9921;47.186;9.778;2023-02-28T11:16:03;20.60;67.10
19552;DHT22;9921;47.186;9.778;2023-02-28T11:18:36;21.50;61.00
19552;DHT22;9921;47.186;9.778;2023-02-28T11:21:06;22.50;61.10
19552;DHT22;9921;47.186;9.778;2023-02-28T11:23:36;22.60;55.20
19552;DHT22;9921;47.186;9.778;2023-02-28T11:26:04;21.30;56.30
19552;DHT22;9921;47.186;9.778;2023-02-28T11:28:36;22.30;57.40
19552;DHT22;9921;47.186;9.778;2023-02-28T11:31:14;22.50;55.30
19552;DHT22;9921;47.186;9.778;2023-02-28T11:33:42;23.30;54.10
19552;DHT22;9921;47.186;9.778;2023-02-28T11:36:13;24.40;54.10
19552;DHT22;9921;47.186;9.778;2023-02-28T11:38:41;22.50;52.80
19552;DHT22;9921;47.186;9.778;2023-02-28T11:41:21;21.40;55.60
19552;DHT22;9921;47.186;9.778;2023-02-28T11:44:03;22.40;55.60
19552;DHT22;9921;47.186;9.778;2023-02-28T11:46:37;22.40;53.90
19552;DHT22;9921;47.186;9.778;2023-02-28T11:49:16;22.70;52.10
19552;DHT22;9921;47.186;9.778;2023-02-28T11:51:52;23.20;53.30
19552;DHT22;9921;47.186;9.778;2023-02-28T11:54:53;24.00;53.30
19552;DHT22;9921;47.186;9.778;2023-02-28T11:57:32;24.80;50.80
19552;DHT22;9921;47.186;9.778;2023-02-28T12:00:07;24.90;49.60
19552;DHT22;9921;47.186;9.778;2023-02-28T12:02:46;25.30;48.90
19552;DHT22;9921;47.186;9.778;2023-02-28T12:05:24;25.20;49.30
19552;DHT22;9921;47.186;9.778;2023-02-28T12:08:03;25.60;48.70
19552;DHT22;9921;47.186;9.778;2023-02-28T12:10:37;25.60;47.40
19552;DHT22;9921;47.186;9.778;2023-02-28T12:13:16;25.00;47.50
19552;DHT22;9921;47.186;9.778;2023-02-28T12:15:59;25.50;47.10
19552;DHT22;9921;47.186;9.778;2023-02-28T12:18:56;25.90;47.50
19552;DHT22;9921;47.186;9.778;2023-02-28T12:21:34;26.10;47.50
19552;DHT22;9921;47.186;9.778;2023-02-28T12:24:21;26.10;46.40
19552;DHT22;9921;47.186;9.778;2023-02-28T12:27:02;25.90;46.00
19552;DHT22;9921;47.186;9.778;2023-02-28T12:29:32;24.70;46.50
19552;DHT22;9921;47.186;9.778;2023-02-28T12:32:05;24.80;47.50
19552;DHT22;9921;47.186;9.778;2023-02-28T12:34:36;24.90;46.20
19552;DHT22;9921;47.186;9.778;2023-02-28T12:37:06;25.30;45.40
19552;DHT22;9921;47.186;9.778;2023-02-28T12:39:38;25.60;46.80
19552;DHT22;9921;47.186;9.778;2023-02-28T12:42:10;25.70;46.40
19552;DHT22;9921;47.186;9.778;2023-02-28T12:44:44;25.80;46.10
19552;DHT22;9921;47.186;9.778;2023-02-28T12:47:15;25.80;46.90
19552;DHT22;9921;47.186;9.778;2023-02-28T12:49:46;26.30;46.30
19552;DHT22;9921;47.186;9.778;2023-02-28T12:52:19;25.60;46.10
19552;DHT22;9921;47.186;9.778;2023-02-28T12:54:52;25.60;45.80
19552;DHT22;9921;47.186;9.778;2023-02-28T12:57:27;25.60;46.50
19552;DHT22;9921;47.186;9.778;2023-02-28T13:00:00;25.30;46.40
19552;DHT22;9921;47.186;9.778;2023-02-28T13:06:02;24.50;46.30
19552;DHT22;9921;47.186;9.778;2023-02-28T13:08:53;24.40;46.90
19552;DHT22;9921;47.186;9.778;2023-02-28T13:11:29;23.90;47.20
19552;DHT22;9921;47.186;9.778;2023-02-28T13:13:59;23.70;47.50
19552;DHT22;9921;47.186;9.778;2023-02-28T13:16:27;23.00;47.60
19552;DHT22;9921;47.186;9.778;2023-02-28T13:19:08;22.40;48.30
19552;DHT22;9921;47.186;9.778;2023-02-28T13:21:42;22.00;49.20
19552;DHT22;9921;47.186;9.778;2023-02-28T13:24:10;22.30;49.10
19552;DHT22;9921;47.186;9.778;2023-02-28T13:29:53;21.50;50.80
19552;DHT22;9921;47.186;9.778;2023-02-28T13:32:32;21.30;50.40
19552;DHT22;9921;47.186;9.778;2023-02-28T13:35:35;21.70;50.50
19552;DHT22;9921;47.186;9.778;2023-02-28T13:38:25;21.80;50.90
19552;DHT22;9921;47.186;9.778;2023-02-28T13:44:02;21.60;50.90
19552;DHT22;9921;47.186;9.778;2023-02-28T13:46:32;21.20;50.50
19552;DHT22;9921;47.186;9.778;2023-02-28T13:49:18;21.70;51.30
19552;DHT22;9921;47.186;9.778;2023-02-28T13:51:46;21.60;51.00
19552;DHT22;9921;47.186;9.778;2023-02-28T13:54:34;21.30;50.70
19552;DHT22;9921;47.186;9.778;2023-02-28T13:57:15;20.40;51.50
19552;DHT22;9921;47.186;9.778;2023-02-28T13:59:50;20.30;51.60
19552;DHT22;9921;47.186;9.778;2023-02-28T14:02:46;20.40;51.70
19552;DHT22;9921;47.186;9.778;2023-02-28T14:05:17;20.60;51.80
19552;DHT22;9921;47.186;9.778;2023-02-28T14:07:47;19.90;51.80
19552;DHT22;9921;47.186;9.778;2023-02-28T14:10:25;19.70;53.10
19552;DHT22;9921;47.186;9.778;2023-02-28T14:13:02;19.40;53.00
19552;DHT22;9921;47.186;9.778;2023-02-28T14:15:47;19.00;54.30
19552;DHT22;9921;47.186;9.778;2023-02-28T14:18:21;18.80;53.10
19552;DHT22;9921;47.186;9.778;2023-02-28T14:20:52;19.10;53.80
19552;DHT22;9921;47.186;9.778;2023-02-28T14:23:32;18.60;54.20
19552;DHT22;9921;47.186;9.778;2023-02-28T14:26:05;18.30;54.20
19552;DHT22;9921;47.186;9.778;2023-02-28T14:28:44;17.80;55.10
19552;DHT22;9921;47.186;9.778;2023-02-28T14:31:15;18.00;55.10
19552;DHT22;9921;47.186;9.778;2023-02-28T14:34:00;17.90;55.60
19552;DHT22;9921;47.186;9.778;2023-02-28T14:36:33;17.40;55.20
19552;DHT22;9921;47.186;9.778;2023-02-28T14:39:05;17.40;56.60
19552;DHT22;9921;47.186;9.778;2023-02-28T14:41:34;17.00;56.60
19552;DHT22;9921;47.186;9.778;2023-02-28T14:44:12;16.80;57.40
19552;DHT22;9921;47.186;9.778;2023-02-28T14:46:41;16.10;57.40
19552;DHT22;9921;47.186;9.778;2023-02-28T14:49:16;14.90;60.50
19552;DHT22;9921;47.186;9.778;2023-02-28T14:51:44;14.10;61.90
19552;DHT22;9921;47.186;9.778;2023-02-28T14:54:15;13.00;63.30
19552;DHT22;9921;47.186;9.778;2023-02-28T14:56:43;12.20;66.10
19552;DHT22;9921;47.186;9.778;2023-02-28T14:59:28;11.60;68.60
19552;DHT22;9921;47.186;9.778;2023-02-28T15:02:21;11.00;69.60
19552;DHT22;9921;47.186;9.778;2023-02-28T15:04:58;10.60;71.60
19552;DHT22;9921;47.186;9.778;2023-02-28T15:07:26;10.10;73.30
19552;DHT22;9921;47.186;9.778;2023-02-28T15:10:11;9.80;75.50
19552;DHT22;9921;47.186;9.778;2023-02-28T15:12:40;9.40;75.50
19552;DHT22;9921;47.186;9.778;2023-02-28T15:15:15;9.00;77.30
19552;DHT22;9921;47.186;9.778;2023-02-28T15:17:45;8.80;79.20
19552;DHT22;9921;47.186;9.778;2023-02-28T15:20:15;8.70;80.00
19552;DHT22;9921;47.186;9.778;2023-02-28T15:22:46;8.50;82.00
19552;DHT22;9921;47.186;9.778;2023-02-28T15:25:15;8.30;82.20
19552;DHT22;9921;47.186;9.778;2023-02-28T15:27:45;8.20;83.40
19552;DHT22;9921;47.186;9.778;2023-02-28T15:30:17;8.00;84.20
19552;DHT22;9921;47.186;9.778;2023-02-28T15:33:02;7.80;85.50
19552;DHT22;9921;47.186;9.778;2023-02-28T15:35:32;7.80;86.20
19552;DHT22;9921;47.186;9.778;2023-02-28T15:38:01;7.70;87.30
19552;DHT22;9921;47.186;9.778;2023-02-28T15:40:30;7.60;88.70
19552;DHT22;9921;47.186;9.778;2023-02-28T15:43:05;7.40;88.60
19552;DHT22;9921;47.186;9.778;2023-02-28T15:45:36;7.20;89.60
19552;DHT22;9921;47.186;9.778;2023-02-28T15:48:15;7.00;90.40
19552;DHT22;9921;47.186;9.778;2023-02-28T15:50:44;6.80;91.30
19552;DHT22;9921;47.186;9.778;2023-02-28T15:53:16;6.80;91.80
19552;DHT22;9921;47.186;9.778;2023-02-28T15:55:44;6.80;92.20
19552;DHT22;9921;47.186;9.778;2023-02-28T15:58:12;6.70;92.20
19552;DHT22;9921;47.186;9.778;2023-02-28T16:00:39;6.40;93.00
19552;DHT22;9921;47.186;9.778;2023-02-28T16:03:24;6.30;93.90
19552;DHT22;9921;47.186;9.778;2023-02-28T16:06:21;6.20;94.60
19552;DHT22;9921;47.186;9.778;2023-02-28T16:08:51;6.20;94.40
19552;DHT22;9921;47.186;9.778;2023-02-28T16:11:20;6.10;94.90
19552;DHT22;9921;47.186;9.778;2023-02-28T16:13:48;5.90;95.60
19552;DHT22;9921;47.186;9.778;2023-02-28T16:16:16;5.70;96.20
19552;DHT22;9921;47.186;9.778;2023-02-28T16:18:44;5.70;96.70
19552;DHT22;9921;47.186;9.778;2023-02-28T16:21:11;5.60;97.20
19552;DHT22;9921;47.186;9.778;2023-02-28T16:23:40;5.40;98.10
19552;DHT22;9921;47.186;9.778;2023-02-28T16:26:08;5.30;98.40
19552;DHT22;9921;47.186;9.778;2023-02-28T16:28:38;5.20;99.20
19552;DHT22;9921;47.186;9.778;2023-02-28T16:31:06;5.00;99.90
19552;DHT22;9921;47.186;9.778;2023-02-28T16:33:34;4.90;99.90
19552;DHT22;9921;47.186;9.778;2023-02-28T16:36:01;4.90;99.90
19552;DHT22;9921;47.186;9.778;2023-02-28T16:38:27;4.90;99.90
19552;DHT22;9921;47.186;9.778;2023-02-28T16:40:58;5.00;99.90